createdAt,value
2023-03-06T00:00:21.821Z,96360.50
2023-03-06T00:02:48.463Z,96358.16
2023-03-06T00:05:15.782Z,96363.56
2023-03-06T00:07:43.071Z,96350.03
2023-03-06T00:10:13.859Z,96352.03
2023-03-06T00:12:40.238Z,96348.22
2023-03-06T00:15:07.345Z,96342.63
2023-03-06T00:17:33.717Z,96361.28
2023-03-06T00:20:00.078Z,96359.97
2023-03-06T00:22:26.455Z,96355.38
2023-03-06T00:24:54.030Z,96345.97
2023-03-06T00:27:21.073Z,96341.84
2023-03-06T00:29:49.692Z,96353.88
2023-03-06T00:32:16.173Z,96354.28
2023-03-06T00:34:42.511Z,96332.41
2023-03-06T00:37:08.939Z,96335.78
2023-03-06T00:39:35.290Z,96349.38
2023-03-06T00:42:01.706Z,96342.72
2023-03-06T00:44:28.059Z,96333.50
2023-03-06T00:46:54.402Z,96333.03
2023-03-06T00:49:20.725Z,96329.72
2023-03-06T00:51:47.166Z,96321.34
2023-03-06T00:54:13.604Z,96327.50
2023-03-06T00:56:39.955Z,96322.13
2023-03-06T00:59:06.301Z,96311.41
2023-03-06T01:01:32.738Z,96302.94
2023-03-06T01:03:59.086Z,96299.13
2023-03-06T01:06:25.433Z,96287.13
2023-03-06T01:08:51.845Z,96294.25
2023-03-06T01:11:18.395Z,96287.53
2023-03-06T01:13:44.917Z,96285.50
2023-03-06T01:16:14.244Z,96280.19
2023-03-06T01:18:41.655Z,96279.63
2023-03-06T01:21:08.512Z,96273.72
2023-03-06T01:23:34.942Z,96271.69
2023-03-06T01:26:01.300Z,96257.66
2023-03-06T01:28:27.768Z,96257.13
2023-03-06T01:30:54.531Z,96253.31
2023-03-06T01:33:20.991Z,96259.44
2023-03-06T01:35:47.539Z,96253.06
2023-03-06T01:38:14.288Z,96248.94
2023-03-06T01:40:41.117Z,96253.06
2023-03-06T01:43:29.550Z,96262.03
2023-03-06T01:46:23.111Z,96258.41
2023-03-06T01:48:54.418Z,96248.19
2023-03-06T01:51:22.829Z,96253.03
2023-03-06T01:53:51.099Z,96241.53
2023-03-06T01:56:18.083Z,96251.00
2023-03-06T01:58:44.980Z,96235.66
2023-03-06T02:01:12.972Z,96240.00
2023-03-06T02:03:41.458Z,96229.00
2023-03-06T02:06:08.349Z,96232.31
2023-03-06T02:08:34.887Z,96212.91
2023-03-06T02:11:05.754Z,96236.66
2023-03-06T02:13:32.434Z,96232.84
2023-03-06T02:15:58.906Z,96225.19
2023-03-06T02:18:25.662Z,96231.09
2023-03-06T02:20:56.783Z,96227.78
2023-03-06T02:23:51.030Z,96223.44
2023-03-06T02:26:18.505Z,96204.81
2023-03-06T02:28:44.889Z,96201.72
2023-03-06T02:31:21.824Z,96216.28
2023-03-06T02:34:01.010Z,96209.63
2023-03-06T02:36:27.781Z,96200.69
2023-03-06T02:38:54.469Z,96196.13
2023-03-06T02:41:20.830Z,96193.31
2023-03-06T02:43:48.342Z,96199.69
2023-03-06T02:46:14.822Z,96208.81
2023-03-06T02:48:41.208Z,96192.47
2023-03-06T02:51:07.570Z,96196.81
2023-03-06T02:53:33.954Z,96192.75
2023-03-06T02:56:01.593Z,96181.25
2023-03-06T02:58:28.006Z,96189.13
2023-03-06T03:00:54.624Z,96187.88
2023-03-06T03:03:21.177Z,96179.72
2023-03-06T03:05:47.542Z,96191.97
2023-03-06T03:08:13.918Z,96196.59
2023-03-06T03:10:40.292Z,96184.06
2023-03-06T03:13:06.735Z,96187.91
2023-03-06T03:15:33.309Z,96180.25
2023-03-06T03:17:59.811Z,96168.25
2023-03-06T03:20:26.174Z,96174.09
2023-03-06T03:22:55.210Z,96181.50
2023-03-06T03:25:23.589Z,96174.09
2023-03-06T03:27:50.232Z,96173.56
2023-03-06T03:30:17.183Z,96170.00
2023-03-06T03:32:43.761Z,96180.72
2023-03-06T03:35:11.096Z,96169.22
2023-03-06T03:37:37.574Z,96158.50
2023-03-06T03:40:06.576Z,96167.97
2023-03-06T03:42:33.012Z,96168.47
2023-03-06T03:44:59.384Z,96165.41
2023-03-06T03:47:25.744Z,96157.72
2023-03-06T03:49:52.320Z,96149.56
2023-03-06T03:52:18.707Z,96157.16
2023-03-06T03:54:45.089Z,96145.75
2023-03-06T03:57:11.573Z,96162.06
2023-03-06T03:59:37.984Z,96139.13
2023-03-06T04:02:04.881Z,96159.19
2023-03-06T04:04:31.742Z,96143.44
2023-03-06T04:06:58.128Z,96145.44
2023-03-06T04:09:24.506Z,96144.66
2023-03-06T04:11:50.870Z,96134.00
2023-03-06T04:14:17.256Z,96141.09
2023-03-06T04:16:43.688Z,96142.38
2023-03-06T04:19:11.590Z,96147.25
2023-03-06T04:21:38.001Z,96133.97
2023-03-06T04:24:04.935Z,96134.88
2023-03-06T04:26:31.289Z,96129.59
2023-03-06T04:28:58.469Z,96125.53
2023-03-06T04:31:25.079Z,96134.13
2023-03-06T04:33:51.532Z,96126.25
2023-03-06T04:36:25.486Z,96128.81
2023-03-06T04:38:51.899Z,96113.50
2023-03-06T04:41:18.260Z,96126.78
2023-03-06T04:43:46.101Z,96121.38
2023-03-06T04:46:12.577Z,96103.75
2023-03-06T04:48:38.984Z,96101.19
2023-03-06T04:51:05.933Z,96117.81
2023-03-06T04:53:32.795Z,96117.06
2023-03-06T04:55:59.555Z,96100.75
2023-03-06T04:58:26.293Z,96106.06
2023-03-06T05:00:52.665Z,96116.09
2023-03-06T05:03:19.030Z,96098.75
2023-03-06T05:05:45.408Z,96100.22
2023-03-06T05:08:15.118Z,96100.22
2023-03-06T05:10:42.842Z,96099.69
2023-03-06T05:13:09.371Z,96101.38
2023-03-06T05:15:35.771Z,96094.97
2023-03-06T05:18:03.278Z,96105.50
2023-03-06T05:20:29.637Z,96092.66
2023-03-06T05:22:55.990Z,96092.25
2023-03-06T05:25:22.362Z,96101.44
2023-03-06T05:27:48.710Z,96096.84
2023-03-06T05:30:15.420Z,96094.81
2023-03-06T05:32:41.890Z,96105.25
2023-03-06T05:35:08.702Z,96087.19
2023-03-06T05:37:35.099Z,96104.28
2023-03-06T05:40:04.165Z,96094.00
2023-03-06T05:42:31.011Z,96103.47
2023-03-06T05:44:57.380Z,96084.09
2023-03-06T05:47:23.760Z,96082.84
2023-03-06T05:49:50.314Z,96091.03
2023-03-06T05:52:17.468Z,96080.03
2023-03-06T05:54:43.847Z,96074.91
2023-03-06T05:57:10.228Z,96078.97
2023-03-06T05:59:36.607Z,96094.31
2023-03-06T06:02:04.037Z,96081.00
2023-03-06T06:04:30.394Z,96090.22
2023-03-06T06:06:59.794Z,96086.91
2023-03-06T06:09:27.078Z,96094.09
2023-03-06T06:11:59.410Z,96083.88
2023-03-06T06:14:25.952Z,96089.00
2023-03-06T06:16:52.405Z,96092.09
2023-03-06T06:19:20.059Z,96078.56
2023-03-06T06:21:48.501Z,96079.59
2023-03-06T06:24:16.605Z,96091.06
2023-03-06T06:26:43.769Z,96089.03
2023-03-06T06:29:10.985Z,96073.50
2023-03-06T06:31:37.805Z,96087.25
2023-03-06T06:34:05.331Z,96082.88
2023-03-06T06:36:32.785Z,96079.06
2023-03-06T06:38:59.841Z,96096.41
2023-03-06T06:41:46.171Z,96097.69
2023-03-06T06:44:15.932Z,96099.72
2023-03-06T06:49:33.741Z,96086.53
2023-03-06T06:52:00.187Z,96082.69
2023-03-06T06:54:27.045Z,96084.22
2023-03-06T06:56:53.869Z,96092.66
2023-03-06T06:59:20.725Z,96084.97
2023-03-06T07:01:47.190Z,96087.53
2023-03-06T07:04:14.637Z,96097.94
2023-03-06T07:06:41.915Z,96083.19
2023-03-06T07:09:08.328Z,96095.72
2023-03-06T07:11:37.305Z,96088.03
2023-03-06T07:14:03.752Z,96097.25
2023-03-06T07:16:30.142Z,96095.22
2023-03-06T07:18:56.576Z,96084.75
2023-03-06T07:21:22.993Z,96096.47
2023-03-06T07:23:49.525Z,96089.03
2023-03-06T07:26:15.934Z,96094.66
2023-03-06T07:28:51.923Z,96096.75
2023-03-06T07:31:22.040Z,96088.53
2023-03-06T07:33:49.484Z,96089.03
2023-03-06T07:36:16.183Z,96099.44
2023-03-06T07:38:42.676Z,96098.47
2023-03-06T07:41:13.325Z,96096.88
2023-03-06T07:43:43.828Z,96095.03
2023-03-06T07:46:12.423Z,96088.66
2023-03-06T07:48:39.769Z,96087.63
2023-03-06T07:51:08.600Z,96082.22
2023-03-06T07:53:35.090Z,96086.81
2023-03-06T07:56:08.490Z,96094.94
2023-03-06T07:58:40.329Z,96093.19
2023-03-06T08:01:12.815Z,96104.34
2023-03-06T08:03:39.324Z,96092.09
2023-03-06T08:06:10.023Z,96092.91
2023-03-06T08:08:39.239Z,96104.09
2023-03-06T08:11:07.146Z,96113.28
2023-03-06T08:13:33.897Z,96111.50
2023-03-06T08:16:00.496Z,96113.81
2023-03-06T08:18:27.684Z,96111.78
2023-03-06T08:21:13.676Z,96119.66
2023-03-06T08:23:41.122Z,96119.94
2023-03-06T08:26:11.357Z,96104.97
2023-03-06T08:28:37.914Z,96106.38
2023-03-06T08:31:28.898Z,96126.75
2023-03-06T08:33:57.305Z,96105.84
2023-03-06T08:36:24.174Z,96109.66
2023-03-06T08:38:51.527Z,96110.44
2023-03-06T08:41:18.095Z,96108.09
2023-03-06T08:43:44.556Z,96112.94
2023-03-06T08:46:11.334Z,96119.81
2023-03-06T08:48:38.097Z,96124.66
2023-03-06T08:51:05.025Z,96124.84
2023-03-06T08:53:42.772Z,96097.25
2023-03-06T08:56:30.741Z,96120.97
2023-03-06T08:58:59.107Z,96126.91
2023-03-06T09:01:32.034Z,96133.28
2023-03-06T09:04:00.712Z,96132.03
2023-03-06T09:06:29.557Z,96133.28
2023-03-06T09:08:56.261Z,96121.16
2023-03-06T09:11:24.319Z,96115.44
2023-03-06T09:13:51.478Z,96130.50
2023-03-06T09:16:17.971Z,96138.94
2023-03-06T09:18:44.410Z,96120.91
2023-03-06T09:21:11.494Z,96141.47
2023-03-06T09:23:39.408Z,96141.28
2023-03-06T09:26:07.413Z,96149.03
2023-03-06T09:28:36.608Z,96151.25
2023-03-06T09:31:07.750Z,96139.94
2023-03-06T09:33:34.108Z,96149.91
2023-03-06T09:36:02.236Z,96156.28
2023-03-06T09:38:29.000Z,96148.34
2023-03-06T09:41:21.037Z,96141.16
2023-03-06T09:43:50.065Z,96151.72
2023-03-06T09:46:19.217Z,96155.31
2023-03-06T09:49:15.110Z,96151.75
2023-03-06T09:51:47.362Z,96154.00
2023-03-06T09:54:15.166Z,96154.50
2023-03-06T09:56:48.847Z,96155.13
2023-03-06T09:59:20.900Z,96142.72
2023-03-06T10:02:12.622Z,96146.09
2023-03-06T10:04:46.045Z,96146.31
2023-03-06T10:07:18.196Z,96134.16
2023-03-06T10:10:03.218Z,96128.97
2023-03-06T10:12:38.886Z,96131.63
2023-03-06T10:15:05.210Z,96134.38
2023-03-06T10:17:37.473Z,96118.16
2023-03-06T10:20:16.106Z,96117.66
2023-03-06T10:23:04.985Z,96125.47
2023-03-06T10:25:50.072Z,96118.50
2023-03-06T10:28:21.218Z,96108.63
2023-03-06T10:31:05.497Z,96111.59
2023-03-06T10:33:55.521Z,96126.78
2023-03-06T10:36:27.119Z,96117.25
2023-03-06T10:38:55.235Z,96108.88
2023-03-06T10:41:35.712Z,96123.19
2023-03-06T10:44:04.974Z,96126.75
2023-03-06T10:46:37.420Z,96126.00
2023-03-06T10:49:31.093Z,96114.06
2023-03-06T10:52:03.166Z,96130.81
2023-03-06T10:54:41.520Z,96114.22
2023-03-06T10:57:27.362Z,96107.50
2023-03-06T10:59:59.735Z,96123.53
2023-03-06T11:02:38.432Z,96121.91
2023-03-06T11:05:06.266Z,96116.28
2023-03-06T11:07:36.845Z,96126.97
2023-03-06T11:10:19.336Z,96130.38
2023-03-06T11:13:19.152Z,96135.31
2023-03-06T11:15:59.518Z,96126.31
2023-03-06T11:18:30.983Z,96117.25
2023-03-06T11:20:57.670Z,96133.88
2023-03-06T11:23:44.276Z,96127.59
2023-03-06T11:26:16.757Z,96129.00
2023-03-06T11:28:54.599Z,96120.81
2023-03-06T11:31:28.740Z,96098.44
2023-03-06T11:34:04.390Z,96120.75
2023-03-06T11:36:37.094Z,96116.84
2023-03-06T11:39:19.001Z,96100.59
2023-03-06T11:41:57.960Z,96099.91
2023-03-06T11:44:53.999Z,96102.22
2023-03-06T11:47:33.329Z,96085.97
2023-03-06T11:50:26.185Z,96086.78
2023-03-06T11:53:04.968Z,96086.31
2023-03-06T11:56:04.802Z,96071.81
2023-03-06T11:58:57.998Z,96072.31
2023-03-06T12:01:36.302Z,96076.47
2023-03-06T12:04:14.475Z,96072.13
2023-03-06T12:07:10.160Z,96068.25
2023-03-06T12:09:45.406Z,96058.19
2023-03-06T12:12:26.832Z,96064.97
2023-03-06T12:15:15.794Z,96054.78
2023-03-06T12:18:09.837Z,96065.38
2023-03-06T12:20:51.474Z,96071.19
2023-03-06T12:23:44.663Z,96060.91
2023-03-06T12:26:19.007Z,96060.59
2023-03-06T12:29:05.188Z,96045.16
2023-03-06T12:31:56.935Z,96056.53
2023-03-06T12:34:33.168Z,96055.22
2023-03-06T12:37:02.567Z,96051.31
2023-03-06T12:39:57.894Z,96043.72
2023-03-06T12:43:03.397Z,96043.00
2023-03-06T12:45:34.367Z,96027.25
2023-03-06T12:48:01.968Z,96043.81
2023-03-06T12:50:32.191Z,96040.25
2023-03-06T12:53:05.534Z,96048.53
2023-03-06T12:55:43.548Z,96032.56
2023-03-06T12:58:27.946Z,96050.09
2023-03-06T13:01:16.721Z,96046.06
2023-03-06T13:04:23.967Z,96049.53
2023-03-06T13:07:31.762Z,96039.69
2023-03-06T13:10:22.679Z,96035.78
2023-03-06T13:13:29.377Z,96034.34
2023-03-06T13:16:28.991Z,96035.00
2023-03-06T13:19:02.034Z,96021.31
2023-03-06T13:21:56.224Z,96027.69
2023-03-06T13:24:23.997Z,96019.50
2023-03-06T13:27:04.550Z,96026.03
2023-03-06T13:29:36.968Z,96020.22
2023-03-06T13:32:03.334Z,96024.13
2023-03-06T13:34:46.808Z,96012.59
2023-03-06T13:37:25.238Z,96029.88
2023-03-06T13:39:54.633Z,96023.09
2023-03-06T13:43:00.116Z,96030.25
2023-03-06T13:45:41.873Z,96016.16
2023-03-06T13:48:43.156Z,96004.66
2023-03-06T13:51:22.843Z,96004.16
2023-03-06T13:54:20.411Z,96003.59
2023-03-06T13:57:00.994Z,96006.38
2023-03-06T13:59:33.024Z,96003.78
2023-03-06T14:02:23.559Z,96004.44
2023-03-06T14:04:58.700Z,95989.31
2023-03-06T14:07:33.418Z,95991.50
2023-03-06T14:10:11.041Z,95993.97
2023-03-06T14:12:41.580Z,95997.03
2023-03-06T14:15:21.364Z,95979.44
2023-03-06T14:18:07.632Z,95996.56
2023-03-06T14:20:44.466Z,96007.41
2023-03-06T14:23:24.869Z,96001.69
2023-03-06T14:25:56.720Z,95992.66
2023-03-06T14:28:28.406Z,95987.50
2023-03-06T14:30:56.792Z,95988.75
2023-03-06T14:33:32.354Z,95993.72
2023-03-06T14:36:02.522Z,95983.72
2023-03-06T14:38:34.336Z,95984.38
2023-03-06T14:41:01.900Z,95979.81
2023-03-06T14:43:28.327Z,95985.13
2023-03-06T14:45:59.217Z,95991.31
2023-03-06T14:48:44.096Z,95976.88
2023-03-06T14:51:18.104Z,95985.81
2023-03-06T14:53:48.034Z,95989.81
2023-03-06T14:56:18.331Z,95981.72
2023-03-06T14:59:02.918Z,95966.78
2023-03-06T15:01:44.057Z,95984.56
2023-03-06T15:04:38.739Z,95988.38
2023-03-06T15:07:10.933Z,95981.34
2023-03-06T15:09:38.604Z,95981.72
2023-03-06T15:12:30.632Z,95989.16
2023-03-06T15:15:25.751Z,95982.78
2023-03-06T15:17:52.165Z,95982.69
2023-03-06T15:20:48.496Z,95987.63
2023-03-06T15:23:22.325Z,95988.94
2023-03-06T15:25:59.976Z,95992.84
2023-03-06T15:28:32.639Z,95997.41
2023-03-06T15:31:12.571Z,95988.09
2023-03-06T15:33:39.022Z,95979.63
2023-03-06T15:36:18.566Z,95992.84
2023-03-06T15:38:46.311Z,95979.53
2023-03-06T15:41:32.400Z,95987.69
2023-03-06T15:44:01.261Z,95986.25
2023-03-06T15:46:28.877Z,95985.03
2023-03-06T15:49:03.209Z,95977.16
2023-03-06T15:51:31.128Z,95981.50
2023-03-06T15:54:09.913Z,95982.28
2023-03-06T15:56:40.699Z,95972.84
2023-03-06T15:59:11.009Z,95981.44
2023-03-06T16:01:37.596Z,95975.41
2023-03-06T16:04:04.088Z,95972.38
2023-03-06T16:06:30.491Z,95986.09
2023-03-06T16:08:56.859Z,95981.69
2023-03-06T16:11:41.888Z,95987.44
2023-03-06T16:14:21.017Z,95975.34
2023-03-06T16:16:48.303Z,95989.50
2023-03-06T16:19:25.964Z,95980.19
2023-03-06T16:21:54.677Z,95986.78
2023-03-06T16:24:21.030Z,95985.53
2023-03-06T16:26:50.748Z,95988.16
2023-03-06T16:29:22.284Z,95982.56
2023-03-06T16:31:48.831Z,95981.44
2023-03-06T16:34:16.144Z,95982.47
2023-03-06T16:36:42.569Z,95973.25
2023-03-06T16:39:17.408Z,95986.56
2023-03-06T16:41:45.795Z,95971.06
2023-03-06T16:44:12.921Z,95982.00
2023-03-06T16:46:42.709Z,95987.69
2023-03-06T16:49:15.977Z,95986.00
2023-03-06T16:51:42.319Z,95979.13
2023-03-06T16:54:08.819Z,95979.06
2023-03-06T16:56:35.161Z,95987.13
2023-03-06T16:59:01.569Z,95995.03
2023-03-06T17:01:27.981Z,95991.25
2023-03-06T17:03:55.184Z,95982.56
2023-03-06T17:06:23.049Z,95979.41
2023-03-06T17:08:50.263Z,95981.88
2023-03-06T17:11:20.179Z,95982.16
2023-03-06T17:13:47.580Z,95979.97
2023-03-06T17:16:18.019Z,95986.72
2023-03-06T17:18:45.951Z,95990.63
2023-03-06T17:21:15.477Z,95976.25
2023-03-06T17:23:42.061Z,95985.84
2023-03-06T17:26:11.497Z,95981.16
2023-03-06T17:28:38.708Z,95988.91
2023-03-06T17:31:20.804Z,96002.38
2023-03-06T17:33:47.890Z,95991.13
2023-03-06T17:36:14.926Z,95998.72
2023-03-06T17:38:42.160Z,95997.19
2023-03-06T17:41:10.454Z,96005.09
2023-03-06T17:43:37.726Z,96004.41
2023-03-06T17:46:12.239Z,96004.38
2023-03-06T17:48:39.739Z,95998.13
2023-03-06T17:51:07.408Z,96000.56
2023-03-06T17:53:33.920Z,95988.41
2023-03-06T17:56:03.115Z,96004.16
2023-03-06T17:58:29.470Z,95993.91
2023-03-06T18:00:55.816Z,96005.41
2023-03-06T18:03:22.537Z,95993.38
2023-03-06T18:06:02.291Z,96004.31
2023-03-06T18:08:29.096Z,95999.88
2023-03-06T18:11:09.575Z,95995.38
2023-03-06T18:13:38.736Z,96013.31
2023-03-06T18:16:06.249Z,96017.47
2023-03-06T18:18:33.124Z,96010.44
2023-03-06T18:21:07.231Z,96026.31
2023-03-06T18:23:33.629Z,96021.25
2023-03-06T18:26:18.550Z,96012.66
2023-03-06T18:28:47.649Z,96018.31
2023-03-06T18:31:35.481Z,96016.03
2023-03-06T18:34:04.773Z,96009.50
2023-03-06T18:36:32.396Z,96003.06
2023-03-06T18:39:00.645Z,95994.75
2023-03-06T18:41:27.016Z,96004.69
2023-03-06T18:43:55.588Z,96013.56
2023-03-06T18:46:22.625Z,96010.91
2023-03-06T18:48:49.096Z,96007.56
2023-03-06T18:51:16.005Z,95977.72
2023-03-06T18:53:43.454Z,96011.19
2023-03-06T18:56:16.586Z,95983.22
2023-03-06T18:58:43.879Z,96006.31
2023-03-06T19:01:11.243Z,95995.28
2023-03-06T19:03:37.768Z,95999.63
2023-03-06T19:06:09.652Z,95993.56
2023-03-06T19:08:37.163Z,96006.09
2023-03-06T19:11:07.159Z,96005.88
2023-03-06T19:13:33.703Z,95987.13
2023-03-06T19:16:00.506Z,96008.00
2023-03-06T19:18:28.194Z,95999.38
2023-03-06T19:20:54.973Z,95985.66
2023-03-06T19:23:22.063Z,96006.06
2023-03-06T19:25:58.451Z,96007.91
2023-03-06T19:28:25.795Z,95999.22
2023-03-06T19:30:52.640Z,95988.81
2023-03-06T19:33:19.684Z,95993.44
2023-03-06T19:35:46.185Z,95997.78
2023-03-06T19:38:12.821Z,96002.94
2023-03-06T19:40:39.185Z,95991.50
2023-03-06T19:43:05.542Z,95993.59
2023-03-06T19:45:32.070Z,96003.31
2023-03-06T19:48:00.842Z,95993.63
2023-03-06T19:50:30.809Z,95976.59
2023-03-06T19:52:57.489Z,95989.66
2023-03-06T19:55:28.564Z,95978.19
2023-03-06T19:57:54.935Z,95970.31
2023-03-06T20:00:21.613Z,95978.22
2023-03-06T20:02:48.017Z,95975.72
2023-03-06T20:05:14.385Z,95966.34
2023-03-06T20:07:40.909Z,95971.19
2023-03-06T20:10:07.704Z,95956.91
2023-03-06T20:12:34.841Z,95952.31
2023-03-06T20:15:01.341Z,95971.94
2023-03-06T20:17:27.828Z,95963.78
2023-03-06T20:19:54.439Z,95960.22
2023-03-06T20:22:21.183Z,95951.56
2023-03-06T20:24:47.563Z,95964.53
2023-03-06T20:27:13.974Z,95966.03
2023-03-06T20:29:44.572Z,95963.50
2023-03-06T20:32:13.033Z,95966.22
2023-03-06T20:34:40.079Z,95953.47
2023-03-06T20:37:07.883Z,95947.94
2023-03-06T20:39:34.641Z,95957.31
2023-03-06T20:42:01.751Z,95947.13
2023-03-06T20:44:28.694Z,95954.44
2023-03-06T20:46:55.249Z,95950.31
2023-03-06T20:49:22.168Z,95947.50
2023-03-06T20:51:49.915Z,95950.03
2023-03-06T20:54:17.237Z,95948.22
2023-03-06T20:56:47.834Z,95942.03
2023-03-06T20:59:14.609Z,95932.97
2023-03-06T21:01:43.692Z,95949.84
2023-03-06T21:04:13.672Z,95949.03
2023-03-06T21:06:42.414Z,95924.41
2023-03-06T21:09:08.805Z,95929.16
2023-03-06T21:11:35.495Z,95917.72
2023-03-06T21:14:02.108Z,95927.66
2023-03-06T21:16:30.393Z,95931.19
2023-03-06T21:18:59.584Z,95936.25
2023-03-06T21:21:29.744Z,95916.38
2023-03-06T21:23:56.351Z,95919.69
2023-03-06T21:26:25.029Z,95913.81
2023-03-06T21:28:51.567Z,95921.50
2023-03-06T21:31:19.861Z,95904.94
2023-03-06T21:33:47.555Z,95914.88
2023-03-06T21:36:14.686Z,95907.28
2023-03-06T21:38:41.120Z,95904.00
2023-03-06T21:41:16.725Z,95901.72
2023-03-06T21:43:43.408Z,95909.66
2023-03-06T21:46:11.218Z,95904.53
2023-03-06T21:48:37.620Z,95893.31
2023-03-06T21:51:10.732Z,95891.09
2023-03-06T21:53:37.770Z,95891.28
2023-03-06T21:56:04.953Z,95895.38
2023-03-06T21:58:32.087Z,95892.28
2023-03-06T22:00:58.839Z,95887.91
2023-03-06T22:03:25.282Z,95877.97
2023-03-06T22:05:52.660Z,95871.38
2023-03-06T22:08:28.051Z,95879.03
2023-03-06T22:10:54.411Z,95886.13
2023-03-06T22:13:20.819Z,95880.78
2023-03-06T22:15:53.364Z,95879.22
2023-03-06T22:18:19.770Z,95881.22
2023-03-06T22:20:46.169Z,95867.91
2023-03-06T22:23:12.880Z,95883.47
2023-03-06T22:25:39.287Z,95864.81
2023-03-06T22:28:05.737Z,95874.41
2023-03-06T22:30:32.109Z,95860.69
2023-03-06T22:32:58.574Z,95868.81
2023-03-06T22:35:25.061Z,95859.59
2023-03-06T22:37:51.453Z,95858.28
2023-03-06T22:40:17.908Z,95840.44
2023-03-06T22:42:44.327Z,95848.88
2023-03-06T22:45:11.244Z,95843.50
2023-03-06T22:47:37.857Z,95854.19
2023-03-06T22:50:05.911Z,95859.53
2023-03-06T22:52:33.367Z,95844.59
2023-03-06T22:54:59.713Z,95858.31
2023-03-06T22:57:26.204Z,95839.19
2023-03-06T22:59:52.542Z,95845.25
2023-03-06T23:02:18.932Z,95846.44
2023-03-06T23:04:52.116Z,95843.56
2023-03-06T23:07:20.057Z,95842.03
2023-03-06T23:09:46.737Z,95822.59
2023-03-06T23:12:13.086Z,95827.63
2023-03-06T23:14:39.516Z,95840.53
2023-03-06T23:17:05.886Z,95834.56
2023-03-06T23:19:32.249Z,95832.19
2023-03-06T23:21:58.616Z,95823.13
2023-03-06T23:24:25.178Z,95826.81
2023-03-06T23:26:51.708Z,95824.25
2023-03-06T23:29:18.072Z,95826.75
2023-03-06T23:31:44.435Z,95829.59
2023-03-06T23:34:11.504Z,95830.25
2023-03-06T23:36:37.892Z,95814.28
2023-03-06T23:39:04.314Z,95822.88
2023-03-06T23:41:30.677Z,95822.16
2023-03-06T23:43:58.428Z,95816.38
2023-03-06T23:46:24.950Z,95811.25
2023-03-06T23:48:52.245Z,95803.41
2023-03-06T23:51:21.429Z,95822.09
2023-03-06T23:53:53.064Z,95811.00
2023-03-06T23:56:19.429Z,95807.22
2023-03-06T23:58:45.818Z,95804.38
